sensor_id;sensor_type;location;lat;lon;timestamp;pressure;altitude;pressure_sealevel;temperature;humidity
36380;BME280;22411;53.016;18.632;2024-01-06T00:01:49;100061.22;;;-3.28;100.00
36380;BME280;22411;53.016;18.632;2024-01-06T00:04:15;100070.44;;;-3.24;100.00
36380;BME280;22411;53.016;18.632;2024-01-06T00:06:41;100070.50;;;-3.25;100.00
36380;BME280;22411;53.016;18.632;2024-01-06T00:09:06;100068.69;;;-3.20;100.00
36380;BME280;22411;53.016;18.632;2024-01-06T00:11:33;100061.09;;;-3.22;100.00
36380;BME280;22411;53.016;18.632;2024-01-06T00:13:58;100068.81;;;-3.26;100.00
36380;BME280;22411;53.016;18.632;2024-01-06T00:16:24;100070.56;;;-3.30;100.00
36380;BME280;22411;53.016;18.632;2024-01-06T00:18:50;100071.38;;;-3.28;100.00
36380;BME280;22411;53.016;18.632;2024-01-06T00:21:18;100069.69;;;-3.29;100.00
36380;BME280;22411;53.016;18.632;2024-01-06T00:23:44;100063.75;;;-3.28;100.00
36380;BME280;22411;53.016;18.632;2024-01-06T00:26:10;100060.34;;;-3.25;100.00
36380;BME280;22411;53.016;18.632;2024-01-06T00:28:38;100060.28;;;-3.22;100.00
36380;BME280;22411;53.016;18.632;2024-01-06T00:31:06;100053.50;;;-3.22;100.00
36380;BME280;22411;53.016;18.632;2024-01-06T00:33:31;100050.16;;;-3.24;100.00
36380;BME280;22411;53.016;18.632;2024-01-06T00:35:57;100051.06;;;-3.26;100.00
36380;BME280;22411;53.016;18.632;2024-01-06T00:38:23;100057.00;;;-3.27;100.00
36380;BME280;22411;53.016;18.632;2024-01-06T00:40:48;100062.81;;;-3.21;100.00
36380;BME280;22411;53.016;18.632;2024-01-06T00:43:14;100064.50;;;-3.23;100.00
36380;BME280;22411;53.016;18.632;2024-01-06T00:45:40;100063.69;;;-3.23;100.00
36380;BME280;22411;53.016;18.632;2024-01-06T00:48:06;100057.78;;;-3.24;100.00
36380;BME280;22411;53.016;18.632;2024-01-06T00:50:32;100051.03;;;-3.25;100.00
36380;BME280;22411;53.016;18.632;2024-01-06T00:52:57;100057.69;;;-3.19;100.00
36380;BME280;22411;53.016;18.632;2024-01-06T00:55:23;100058.66;;;-3.25;100.00
36380;BME280;22411;53.016;18.632;2024-01-06T00:57:51;100057.84;;;-3.27;100.00
36380;BME280;22411;53.016;18.632;2024-01-06T01:00:17;100070.41;;;-3.21;100.00
36380;BME280;22411;53.016;18.632;2024-01-06T01:02:42;100066.13;;;-3.19;100.00
36380;BME280;22411;53.016;18.632;2024-01-06T01:05:08;100066.25;;;-3.25;100.00
36380;BME280;22411;53.016;18.632;2024-01-06T01:07:34;100067.03;;;-3.23;100.00
36380;BME280;22411;53.016;18.632;2024-01-06T01:10:00;100067.09;;;-3.24;100.00
36380;BME280;22411;53.016;18.632;2024-01-06T01:12:26;100068.72;;;-3.22;100.00
36380;BME280;22411;53.016;18.632;2024-01-06T01:14:52;100070.44;;;-3.24;100.00
36380;BME280;22411;53.016;18.632;2024-01-06T01:17:18;100069.63;;;-3.24;100.00
36380;BME280;22411;53.016;18.632;2024-01-06T01:19:44;100070.41;;;-3.21;100.00
36380;BME280;22411;53.016;18.632;2024-01-06T01:22:10;100061.88;;;-3.18;100.00
36380;BME280;22411;53.016;18.632;2024-01-06T01:24:36;100058.56;;;-3.20;100.00
36380;BME280;22411;53.016;18.632;2024-01-06T01:27:01;100063.63;;;-3.20;100.00
36380;BME280;22411;53.016;18.632;2024-01-06T01:29:27;100066.16;;;-3.22;100.00
36380;BME280;22411;53.016;18.632;2024-01-06T01:31:53;100071.25;;;-3.20;100.00
36380;BME280;22411;53.016;18.632;2024-01-06T01:34:19;100067.78;;;-3.18;100.00
36380;BME280;22411;53.016;18.632;2024-01-06T01:36:44;100069.47;;;-3.17;100.00
36380;BME280;22411;53.016;18.632;2024-01-06T01:39:10;100072.03;;;-3.18;100.00
36380;BME280;22411;53.016;18.632;2024-01-06T01:41:36;100071.16;;;-3.16;100.00
36380;BME280;22411;53.016;18.632;2024-01-06T01:44:02;100065.25;;;-3.18;100.00
36380;BME280;22411;53.016;18.632;2024-01-06T01:46:29;100062.72;;;-3.18;100.00
36380;BME280;22411;53.016;18.632;2024-01-06T01:48:56;100065.25;;;-3.18;100.00
36380;BME280;22411;53.016;18.632;2024-01-06T01:51:23;100065.28;;;-3.19;100.00
36380;BME280;22411;53.016;18.632;2024-01-06T01:53:50;100066.09;;;-3.16;100.00
36380;BME280;22411;53.016;18.632;2024-01-06T01:56:16;100072.00;;;-3.15;100.00
36380;BME280;22411;53.016;18.632;2024-01-06T01:58:42;100063.50;;;-3.14;100.00
36380;BME280;22411;53.016;18.632;2024-01-06T02:01:08;100067.66;;;-3.11;100.00
36380;BME280;22411;53.016;18.632;2024-01-06T02:03:34;100069.31;;;-3.09;100.00
36380;BME280;22411;53.016;18.632;2024-01-06T02:06:00;100069.38;;;-3.12;100.00
36380;BME280;22411;53.016;18.632;2024-01-06T02:08:26;100077.06;;;-3.15;100.00
36380;BME280;22411;53.016;18.632;2024-01-06T02:10:54;100082.13;;;-3.15;100.00
36380;BME280;22411;53.016;18.632;2024-01-06T02:13:22;100081.22;;;-3.12;100.00
36380;BME280;22411;53.016;18.632;2024-01-06T02:15:48;100078.69;;;-3.12;100.00
36380;BME280;22411;53.016;18.632;2024-01-06T02:18:14;100075.41;;;-3.16;100.00
36380;BME280;22411;53.016;18.632;2024-01-06T02:20:45;100073.72;;;-3.19;100.00
36380;BME280;22411;53.016;18.632;2024-01-06T02:23:12;100078.81;;;-3.19;100.00
36380;BME280;22411;53.016;18.632;2024-01-06T02:25:37;100090.53;;;-3.13;100.00
36380;BME280;22411;53.016;18.632;2024-01-06T02:28:03;100086.31;;;-3.14;100.00
36380;BME280;22411;53.016;18.632;2024-01-06T02:30:29;100085.41;;;-3.11;100.00
36380;BME280;22411;53.016;18.632;2024-01-06T02:32:55;100068.59;;;-3.14;100.00
36380;BME280;22411;53.016;18.632;2024-01-06T02:35:20;100087.91;;;-3.08;100.00
36380;BME280;22411;53.016;18.632;2024-01-06T02:37:46;100088.75;;;-3.08;100.00
36380;BME280;22411;53.016;18.632;2024-01-06T02:40:13;100084.59;;;-3.12;100.00
36380;BME280;22411;53.016;18.632;2024-01-06T02:42:41;100083.78;;;-3.14;100.00
36380;BME280;22411;53.016;18.632;2024-01-06T02:45:07;100082.00;;;-3.09;100.00
36380;BME280;22411;53.016;18.632;2024-01-06T02:47:34;100077.72;;;-3.07;100.00
36380;BME280;22411;53.016;18.632;2024-01-06T02:50:00;100079.38;;;-3.04;100.00
36380;BME280;22411;53.016;18.632;2024-01-06T02:52:26;100086.91;;;-3.01;100.00
36380;BME280;22411;53.016;18.632;2024-01-06T02:54:51;100077.66;;;-3.02;100.00
36380;BME280;22411;53.016;18.632;2024-01-06T02:57:18;100082.72;;;-3.02;100.00
36380;BME280;22411;53.016;18.632;2024-01-06T02:59:43;100079.31;;;-3.01;100.00
36380;BME280;22411;53.016;18.632;2024-01-06T03:02:11;100076.78;;;-3.01;100.00
36380;BME280;22411;53.016;18.632;2024-01-06T03:04:36;100075.81;;;-2.96;100.00
36380;BME280;22411;53.016;18.632;2024-01-06T03:07:02;100080.97;;;-2.99;100.00
36380;BME280;22411;53.016;18.632;2024-01-06T03:09:28;100085.22;;;-3.01;100.00
36380;BME280;22411;53.016;18.632;2024-01-06T03:11:54;100076.78;;;-3.01;100.00
36380;BME280;22411;53.016;18.632;2024-01-06T03:14:19;100083.53;;;-3.00;100.00
36380;BME280;22411;53.016;18.632;2024-01-06T03:16:45;100086.00;;;-2.97;100.00
36380;BME280;22411;53.016;18.632;2024-01-06T03:19:11;100089.31;;;-2.94;100.00
36380;BME280;22411;53.016;18.632;2024-01-06T03:21:36;100085.16;;;-2.98;100.00
36380;BME280;22411;53.016;18.632;2024-01-06T03:24:03;100080.13;;;-3.01;100.00
36380;BME280;22411;53.016;18.632;2024-01-06T03:26:29;100094.53;;;-3.01;100.00
36380;BME280;22411;53.016;18.632;2024-01-06T03:28:55;100097.88;;;-2.99;100.00
36380;BME280;22411;53.016;18.632;2024-01-06T03:31:21;100100.44;;;-3.01;100.00
36380;BME280;22411;53.016;18.632;2024-01-06T03:33:47;100108.06;;;-3.02;100.00
36380;BME280;22411;53.016;18.632;2024-01-06T03:36:13;100114.75;;;-2.98;100.00
36380;BME280;22411;53.016;18.632;2024-01-06T03:38:42;100106.31;;;-2.99;100.00
36380;BME280;22411;53.016;18.632;2024-01-06T03:41:10;100106.38;;;-3.02;100.00
36380;BME280;22411;53.016;18.632;2024-01-06T03:43:36;100114.06;;;-3.05;100.00
36380;BME280;22411;53.016;18.632;2024-01-06T03:46:02;100114.94;;;-3.07;100.00
36380;BME280;22411;53.016;18.632;2024-01-06T03:48:27;100110.75;;;-3.10;100.00
36380;BME280;22411;53.016;18.632;2024-01-06T03:50:53;100110.75;;;-3.10;100.00
36380;BME280;22411;53.016;18.632;2024-01-06T03:53:19;100111.69;;;-3.14;100.00
36380;BME280;22411;53.016;18.632;2024-01-06T03:55:45;100104.91;;;-3.13;100.00
36380;BME280;22411;53.016;18.632;2024-01-06T03:58:10;100104.88;;;-3.10;100.00
36380;BME280;22411;53.016;18.632;2024-01-06T04:00:36;100101.53;;;-3.14;100.00
36380;BME280;22411;53.016;18.632;2024-01-06T04:03:02;100100.63;;;-3.10;100.00
36380;BME280;22411;53.016;18.632;2024-01-06T04:05:28;100103.16;;;-3.10;100.00
36380;BME280;22411;53.016;18.632;2024-01-06T04:07:53;100098.16;;;-3.14;100.00
36380;BME280;22411;53.016;18.632;2024-01-06T04:10:19;100101.59;;;-3.17;100.00
36380;BME280;22411;53.016;18.632;2024-01-06T04:12:45;100109.16;;;-3.14;100.00
36380;BME280;22411;53.016;18.632;2024-01-06T04:15:10;100109.19;;;-3.16;100.00
36380;BME280;22411;53.016;18.632;2024-01-06T04:17:36;100115.91;;;-3.14;100.00
36380;BME280;22411;53.016;18.632;2024-01-06T04:20:02;100114.28;;;-3.19;100.00
36380;BME280;22411;53.016;18.632;2024-01-06T04:22:29;100118.56;;;-3.21;100.00
36380;BME280;22411;53.016;18.632;2024-01-06T04:24:55;100119.41;;;-3.22;100.00
36380;BME280;22411;53.016;18.632;2024-01-06T04:27:20;100120.28;;;-3.23;100.00
36380;BME280;22411;53.016;18.632;2024-01-06T04:29:46;100112.63;;;-3.20;100.00
36380;BME280;22411;53.016;18.632;2024-01-06T04:32:12;100109.25;;;-3.20;100.00
36380;BME280;22411;53.016;18.632;2024-01-06T04:34:38;100117.63;;;-3.17;100.00
36380;BME280;22411;53.016;18.632;2024-01-06T04:37:03;100117.63;;;-3.15;100.00
36380;BME280;22411;53.016;18.632;2024-01-06T04:39:29;100123.53;;;-3.14;100.00
36380;BME280;22411;53.016;18.632;2024-01-06T04:41:55;100126.88;;;-3.14;100.00
36380;BME280;22411;53.016;18.632;2024-01-06T04:44:21;100123.66;;;-3.22;100.00
36380;BME280;22411;53.016;18.632;2024-01-06T04:46:47;100121.09;;;-3.22;100.00
36380;BME280;22411;53.016;18.632;2024-01-06T04:49:13;100131.25;;;-3.22;100.00
36380;BME280;22411;53.016;18.632;2024-01-06T04:51:38;100131.22;;;-3.19;100.00
36380;BME280;22411;53.016;18.632;2024-01-06T04:54:04;100132.03;;;-3.19;100.00
36380;BME280;22411;53.016;18.632;2024-01-06T04:56:30;100137.94;;;-3.18;100.00
36380;BME280;22411;53.016;18.632;2024-01-06T04:58:55;100140.41;;;-3.13;100.00
36380;BME280;22411;53.016;18.632;2024-01-06T05:01:23;100132.78;;;-3.13;100.00
36380;BME280;22411;53.016;18.632;2024-01-06T05:03:49;100133.69;;;-3.16;100.00
36380;BME280;22411;53.016;18.632;2024-01-06T05:06:14;100138.75;;;-3.14;100.00
36380;BME280;22411;53.016;18.632;2024-01-06T05:08:40;100139.53;;;-3.12;100.00
36380;BME280;22411;53.016;18.632;2024-01-06T05:11:10;100145.50;;;-3.17;100.00
36380;BME280;22411;53.016;18.632;2024-01-06T05:13:36;100145.56;;;-3.18;100.00
36380;BME280;22411;53.016;18.632;2024-01-06T05:16:02;100150.66;;;-3.20;100.00
36380;BME280;22411;53.016;18.632;2024-01-06T05:18:28;100147.22;;;-3.17;100.00
36380;BME280;22411;53.016;18.632;2024-01-06T05:20:54;100145.50;;;-3.15;100.00
36380;BME280;22411;53.016;18.632;2024-01-06T05:23:20;100138.69;;;-3.13;100.00
36380;BME280;22411;53.016;18.632;2024-01-06T05:25:46;100146.31;;;-3.13;100.00
36380;BME280;22411;53.016;18.632;2024-01-06T05:28:12;100153.91;;;-3.13;100.00
36380;BME280;22411;53.016;18.632;2024-01-06T05:30:37;100152.09;;;-3.06;100.00
36380;BME280;22411;53.016;18.632;2024-01-06T05:33:03;100160.53;;;-3.04;100.00
36380;BME280;22411;53.016;18.632;2024-01-06T05:35:29;100164.84;;;-3.09;100.00
36380;BME280;22411;53.016;18.632;2024-01-06T05:37:55;100169.00;;;-3.07;100.00
36380;BME280;22411;53.016;18.632;2024-01-06T05:40:21;100179.16;;;-3.07;100.00
36380;BME280;22411;53.016;18.632;2024-01-06T05:42:47;100176.63;;;-3.05;100.00
36380;BME280;22411;53.016;18.632;2024-01-06T05:45:13;100183.34;;;-3.06;100.00
36380;BME280;22411;53.016;18.632;2024-01-06T05:47:39;100184.25;;;-3.08;100.00
36380;BME280;22411;53.016;18.632;2024-01-06T05:50:05;100180.06;;;-3.09;100.00
36380;BME280;22411;53.016;18.632;2024-01-06T05:52:31;100183.44;;;-3.09;100.00
36380;BME280;22411;53.016;18.632;2024-01-06T05:54:56;100186.78;;;-3.08;100.00
36380;BME280;22411;53.016;18.632;2024-01-06T05:57:23;100186.75;;;-3.07;100.00
36380;BME280;22411;53.016;18.632;2024-01-06T05:59:49;100190.22;;;-3.11;100.00
36380;BME280;22411;53.016;18.632;2024-01-06T06:02:15;100196.97;;;-3.10;100.00
36380;BME280;22411;53.016;18.632;2024-01-06T06:04:40;100191.09;;;-3.13;100.00
36380;BME280;22411;53.016;18.632;2024-01-06T06:07:06;100195.28;;;-3.09;100.00
36380;BME280;22411;53.016;18.632;2024-01-06T06:09:32;100203.72;;;-3.09;100.00
36380;BME280;22411;53.016;18.632;2024-01-06T06:12:00;100201.97;;;-3.07;100.00
36380;BME280;22411;53.016;18.632;2024-01-06T06:14:25;100199.47;;;-3.08;100.00
36380;BME280;22411;53.016;18.632;2024-01-06T06:16:51;100213.78;;;-3.04;100.00
36380;BME280;22411;53.016;18.632;2024-01-06T06:19:17;100212.91;;;-3.03;100.00
36380;BME280;22411;53.016;18.632;2024-01-06T06:21:44;100217.16;;;-3.04;100.00
36380;BME280;22411;53.016;18.632;2024-01-06T06:24:10;100217.97;;;-3.03;100.00
36380;BME280;22411;53.016;18.632;2024-01-06T06:26:35;100216.28;;;-3.03;100.00
36380;BME280;22411;53.016;18.632;2024-01-06T06:29:02;100220.50;;;-3.03;100.00
36380;BME280;22411;53.016;18.632;2024-01-06T06:31:28;100224.78;;;-3.07;100.00
36380;BME280;22411;53.016;18.632;2024-01-06T06:33:53;100237.50;;;-3.08;100.00
36380;BME280;22411;53.016;18.632;2024-01-06T06:36:19;100240.03;;;-3.08;100.00
36380;BME280;22411;53.016;18.632;2024-01-06T06:38:45;100240.78;;;-3.02;100.00
36380;BME280;22411;53.016;18.632;2024-01-06T06:41:11;100237.34;;;-2.99;100.00
36380;BME280;22411;53.016;18.632;2024-01-06T06:43:37;100245.81;;;-2.99;100.00
36380;BME280;22411;53.016;18.632;2024-01-06T06:46:03;100245.69;;;-2.93;100.00
36380;BME280;22411;53.016;18.632;2024-01-06T06:48:28;100243.19;;;-2.94;100.00
36380;BME280;22411;53.016;18.632;2024-01-06T06:50:54;100238.09;;;-2.93;100.00
36380;BME280;22411;53.016;18.632;2024-01-06T06:53:20;100236.38;;;-2.92;100.00
36380;BME280;22411;53.016;18.632;2024-01-06T06:55:46;100236.31;;;-2.87;100.00
36380;BME280;22411;53.016;18.632;2024-01-06T06:58:12;100243.88;;;-2.86;100.00
36380;BME280;22411;53.016;18.632;2024-01-06T07:00:38;100240.50;;;-2.86;100.00
36380;BME280;22411;53.016;18.632;2024-01-06T07:03:04;100244.72;;;-2.85;100.00
36380;BME280;22411;53.016;18.632;2024-01-06T07:05:30;100243.00;;;-2.85;100.00
36380;BME280;22411;53.016;18.632;2024-01-06T07:07:56;100242.09;;;-2.81;100.00
36380;BME280;22411;53.016;18.632;2024-01-06T07:10:22;100252.25;;;-2.79;100.00
36380;BME280;22411;53.016;18.632;2024-01-06T07:12:47;100252.25;;;-2.79;100.00
36380;BME280;22411;53.016;18.632;2024-01-06T07:15:13;100255.53;;;-2.76;100.00
36380;BME280;22411;53.016;18.632;2024-01-06T07:17:39;100253.88;;;-2.77;100.00
36380;BME280;22411;53.016;18.632;2024-01-06T07:20:08;100258.91;;;-2.74;100.00
36380;BME280;22411;53.016;18.632;2024-01-06T07:22:34;100253.84;;;-2.75;100.00
36380;BME280;22411;53.016;18.632;2024-01-06T07:25:03;100260.59;;;-2.76;100.00
36380;BME280;22411;53.016;18.632;2024-01-06T07:27:28;100265.66;;;-2.74;100.00
36380;BME280;22411;53.016;18.632;2024-01-06T07:29:54;100267.34;;;-2.75;100.00
36380;BME280;22411;53.016;18.632;2024-01-06T07:32:24;100271.66;;;-2.78;100.00
36380;BME280;22411;53.016;18.632;2024-01-06T07:34:50;100262.31;;;-2.76;100.00
36380;BME280;22411;53.016;18.632;2024-01-06T07:37:16;100265.66;;;-2.74;100.00
36380;BME280;22411;53.016;18.632;2024-01-06T07:39:42;100280.88;;;-2.73;100.00
36380;BME280;22411;53.016;18.632;2024-01-06T07:42:08;100281.69;;;-2.72;100.00
36380;BME280;22411;53.016;18.632;2024-01-06T07:44:34;100295.25;;;-2.75;100.00
36380;BME280;22411;53.016;18.632;2024-01-06T07:47:00;100307.94;;;-2.73;100.00
36380;BME280;22411;53.016;18.632;2024-01-06T07:49:27;100301.16;;;-2.74;100.00
36380;BME280;22411;53.016;18.632;2024-01-06T07:51:53;100301.09;;;-2.70;100.00
36380;BME280;22411;53.016;18.632;2024-01-06T07:54:19;100301.13;;;-2.71;100.00
36380;BME280;22411;53.016;18.632;2024-01-06T07:56:44;100302.78;;;-2.70;100.00
36380;BME280;22411;53.016;18.632;2024-01-06T07:59:11;100305.22;;;-2.63;100.00
36380;BME280;22411;53.016;18.632;2024-01-06T08:01:37;100311.16;;;-2.64;100.00
36380;BME280;22411;53.016;18.632;2024-01-06T08:04:03;100310.34;;;-2.66;100.00
36380;BME280;22411;53.016;18.632;2024-01-06T08:06:28;100316.13;;;-2.59;100.00
36380;BME280;22411;53.016;18.632;2024-01-06T08:08:54;100321.16;;;-2.56;100.00
36380;BME280;22411;53.016;18.632;2024-01-06T08:11:20;100325.41;;;-2.56;100.00
36380;BME280;22411;53.016;18.632;2024-01-06T08:13:46;100326.97;;;-2.49;100.00
36380;BME280;22411;53.016;18.632;2024-01-06T08:16:12;100328.59;;;-2.45;100.00
36380;BME280;22411;53.016;18.632;2024-01-06T08:18:38;100337.88;;;-2.44;100.00
36380;BME280;22411;53.016;18.632;2024-01-06T08:21:04;100347.91;;;-2.37;100.00
36380;BME280;22411;53.016;18.632;2024-01-06T08:23:30;100345.34;;;-2.35;100.00
36380;BME280;22411;53.016;18.632;2024-01-06T08:25:55;100357.19;;;-2.35;100.00
36380;BME280;22411;53.016;18.632;2024-01-06T08:28:22;100360.59;;;-2.38;100.00
36380;BME280;22411;53.016;18.632;2024-01-06T08:30:49;100363.91;;;-2.33;100.00
36380;BME280;22411;53.016;18.632;2024-01-06T08:33:15;100357.88;;;-2.26;100.00
36380;BME280;22411;53.016;18.632;2024-01-06T08:35:40;100362.00;;;-2.22;100.00
36380;BME280;22411;53.016;18.632;2024-01-06T08:38:07;100363.63;;;-2.18;100.00
36380;BME280;22411;53.016;18.632;2024-01-06T08:40:34;100362.75;;;-2.17;100.00
36380;BME280;22411;53.016;18.632;2024-01-06T08:43:01;100364.47;;;-2.17;100.00
36380;BME280;22411;53.016;18.632;2024-01-06T08:45:26;100376.19;;;-2.10;100.00
36380;BME280;22411;53.016;18.632;2024-01-06T08:47:52;100379.63;;;-2.13;100.00
36380;BME280;22411;53.016;18.632;2024-01-06T08:50:18;100382.16;;;-2.13;100.00
36380;BME280;22411;53.016;18.632;2024-01-06T08:52:43;100390.69;;;-2.17;100.00
36380;BME280;22411;53.016;18.632;2024-01-06T08:55:09;100394.94;;;-2.17;100.00
36380;BME280;22411;53.016;18.632;2024-01-06T08:57:35;100404.13;;;-2.10;100.00
36380;BME280;22411;53.016;18.632;2024-01-06T09:00:00;100399.84;;;-2.08;100.00
36380;BME280;22411;53.016;18.632;2024-01-06T09:02:26;100411.63;;;-2.04;100.00
36380;BME280;22411;53.016;18.632;2024-01-06T09:04:52;100415.06;;;-2.05;100.00
36380;BME280;22411;53.016;18.632;2024-01-06T09:07:18;100415.09;;;-2.08;100.00
36380;BME280;22411;53.016;18.632;2024-01-06T09:09:44;100419.31;;;-2.07;100.00
36380;BME280;22411;53.016;18.632;2024-01-06T09:12:09;100423.47;;;-2.03;100.00
36380;BME280;22411;53.016;18.632;2024-01-06T09:14:37;100426.81;;;-2.01;100.00
36380;BME280;22411;53.016;18.632;2024-01-06T09:17:09;100437.72;;;-1.94;100.00
36380;BME280;22411;53.016;18.632;2024-01-06T09:19:34;100426.59;;;-1.89;100.00
36380;BME280;22411;53.016;18.632;2024-01-06T09:22:00;100428.22;;;-1.85;100.00
36380;BME280;22411;53.016;18.632;2024-01-06T09:24:26;100424.84;;;-1.87;100.00
36380;BME280;22411;53.016;18.632;2024-01-06T09:26:52;100429.91;;;-1.83;100.00
36380;BME280;22411;53.016;18.632;2024-01-06T09:29:17;100428.06;;;-1.77;100.00
36380;BME280;22411;53.016;18.632;2024-01-06T09:31:43;100429.63;;;-1.68;100.00
36380;BME280;22411;53.016;18.632;2024-01-06T09:34:10;100432.13;;;-1.67;100.00
36380;BME280;22411;53.016;18.632;2024-01-06T09:36:36;100437.13;;;-1.62;100.00
36380;BME280;22411;53.016;18.632;2024-01-06T09:39:01;100437.03;;;-1.58;100.00
36380;BME280;22411;53.016;18.632;2024-01-06T09:41:28;100443.75;;;-1.55;100.00
36380;BME280;22411;53.016;18.632;2024-01-06T09:43:53;100447.94;;;-1.54;100.00
36380;BME280;22411;53.016;18.632;2024-01-06T09:46:27;100447.94;;;-1.52;100.00
36380;BME280;22411;53.016;18.632;2024-01-06T09:48:55;100448.91;;;-1.58;100.00
36380;BME280;22411;53.016;18.632;2024-01-06T09:51:22;100448.16;;;-1.63;100.00
36380;BME280;22411;53.016;18.632;2024-01-06T09:54:09;100440.41;;;-1.59;100.00
36380;BME280;22411;53.016;18.632;2024-01-06T09:56:35;100438.00;;;-1.63;100.00
36380;BME280;22411;53.016;18.632;2024-01-06T09:59:01;100448.88;;;-1.56;100.00
36380;BME280;22411;53.016;18.632;2024-01-06T10:01:27;100447.06;;;-1.51;100.00
36380;BME280;22411;53.016;18.632;2024-01-06T10:03:53;100447.88;;;-1.49;100.00
36380;BME280;22411;53.016;18.632;2024-01-06T10:06:20;100451.25;;;-1.49;100.00
36380;BME280;22411;53.016;18.632;2024-01-06T10:08:51;100454.56;;;-1.45;100.00
36380;BME280;22411;53.016;18.632;2024-01-06T10:11:18;100456.41;;;-1.52;100.00
36380;BME280;22411;53.016;18.632;2024-01-06T10:13:43;100454.75;;;-1.54;100.00
36380;BME280;22411;53.016;18.632;2024-01-06T10:16:09;100451.41;;;-1.56;100.00
36380;BME280;22411;53.016;18.632;2024-01-06T10:18:35;100452.19;;;-1.54;100.00
36380;BME280;22411;53.016;18.632;2024-01-06T10:21:05;100453.03;;;-1.52;100.00
36380;BME280;22411;53.016;18.632;2024-01-06T10:23:32;100449.53;;;-1.48;100.00
36380;BME280;22411;53.016;18.632;2024-01-06T10:25:58;100461.28;;;-1.43;100.00
36380;BME280;22411;53.016;18.632;2024-01-06T10:28:24;100459.50;;;-1.38;100.00
36380;BME280;22411;53.016;18.632;2024-01-06T10:30:55;100454.47;;;-1.41;100.00
36380;BME280;22411;53.016;18.632;2024-01-06T10:33:25;100454.53;;;-1.44;100.00
36380;BME280;22411;53.016;18.632;2024-01-06T10:35:52;100447.75;;;-1.43;100.00
36380;BME280;22411;53.016;18.632;2024-01-06T10:38:18;100456.38;;;-1.50;100.00
36380;BME280;22411;53.016;18.632;2024-01-06T10:43:27;100441.06;;;-1.49;100.00
36380;BME280;22411;53.016;18.632;2024-01-06T10:45:56;100453.03;;;-1.54;100.00
36380;BME280;22411;53.016;18.632;2024-01-06T10:48:25;100451.44;;;-1.60;100.00
36380;BME280;22411;53.016;18.632;2024-01-06T10:50:53;100448.19;;;-1.66;100.00
36380;BME280;22411;53.016;18.632;2024-01-06T10:53:20;100448.94;;;-1.61;100.00
36380;BME280;22411;53.016;18.632;2024-01-06T10:55:49;100452.25;;;-1.56;100.00
36380;BME280;22411;53.016;18.632;2024-01-06T10:58:17;100451.44;;;-1.58;100.00
36380;BME280;22411;53.016;18.632;2024-01-06T11:00:43;100450.56;;;-1.59;100.00
36380;BME280;22411;53.016;18.632;2024-01-06T11:03:09;100439.63;;;-1.61;100.00
36380;BME280;22411;53.016;18.632;2024-01-06T11:05:36;100446.28;;;-1.55;100.00
36380;BME280;22411;53.016;18.632;2024-01-06T11:08:04;100449.56;;;-1.50;100.00
36380;BME280;22411;53.016;18.632;2024-01-06T11:10:31;100447.81;;;-1.46;100.00
36380;BME280;22411;53.016;18.632;2024-01-06T11:13:14;100444.34;;;-1.44;100.00
36380;BME280;22411;53.016;18.632;2024-01-06T11:15:44;100445.19;;;-1.42;100.00
36380;BME280;22411;53.016;18.632;2024-01-06T11:18:30;100445.34;;;-1.51;100.00
36380;BME280;22411;53.016;18.632;2024-01-06T11:23:39;100445.47;;;-1.57;100.00
36380;BME280;22411;53.016;18.632;2024-01-06T11:26:06;100449.69;;;-1.56;100.00
36380;BME280;22411;53.016;18.632;2024-01-06T11:28:43;100447.13;;;-1.54;100.00
36380;BME280;22411;53.016;18.632;2024-01-06T11:31:16;100454.06;;;-1.64;100.00
36380;BME280;22411;53.016;18.632;2024-01-06T11:33:46;100449.00;;;-1.63;100.00
36380;BME280;22411;53.016;18.632;2024-01-06T11:36:15;100451.44;;;-1.60;100.00
36380;BME280;22411;53.016;18.632;2024-01-06T11:38:41;100451.69;;;-1.72;100.00
36380;BME280;22411;53.016;18.632;2024-01-06T11:41:07;100459.28;;;-1.70;100.00
36380;BME280;22411;53.016;18.632;2024-01-06T11:43:37;100455.81;;;-1.66;100.00
36380;BME280;22411;53.016;18.632;2024-01-06T11:46:07;100459.19;;;-1.66;100.00
36380;BME280;22411;53.016;18.632;2024-01-06T11:48:34;100454.00;;;-1.60;100.00
36380;BME280;22411;53.016;18.632;2024-01-06T11:51:01;100455.56;;;-1.52;100.00
36380;BME280;22411;53.016;18.632;2024-01-06T11:53:31;100458.13;;;-1.54;100.00
36380;BME280;22411;53.016;18.632;2024-01-06T11:55:59;100456.63;;;-1.64;100.00
36380;BME280;22411;53.016;18.632;2024-01-06T11:58:25;100458.31;;;-1.65;100.00
36380;BME280;22411;53.016;18.632;2024-01-06T12:00:57;100467.63;;;-1.64;100.00
36380;BME280;22411;53.016;18.632;2024-01-06T12:03:23;100465.00;;;-1.58;100.00
36380;BME280;22411;53.016;18.632;2024-01-06T12:06:02;100471.69;;;-1.55;100.00
36380;BME280;22411;53.016;18.632;2024-01-06T12:08:28;100470.03;;;-1.56;100.00
36380;BME280;22411;53.016;18.632;2024-01-06T12:11:04;100460.63;;;-1.51;100.00
36380;BME280;22411;53.016;18.632;2024-01-06T12:13:31;100462.38;;;-1.54;100.00
36380;BME280;22411;53.016;18.632;2024-01-06T12:15:57;100460.75;;;-1.59;100.00
36380;BME280;22411;53.016;18.632;2024-01-06T12:18:23;100466.81;;;-1.66;100.00
36380;BME280;22411;53.016;18.632;2024-01-06T12:20:50;100470.31;;;-1.71;100.00
36380;BME280;22411;53.016;18.632;2024-01-06T12:23:26;100472.00;;;-1.70;100.00
36380;BME280;22411;53.016;18.632;2024-01-06T12:25:54;100470.28;;;-1.68;100.00
36380;BME280;22411;53.016;18.632;2024-01-06T12:28:20;100462.69;;;-1.71;100.00
36380;BME280;22411;53.016;18.632;2024-01-06T12:30:46;100458.66;;;-1.81;100.00
36380;BME280;22411;53.016;18.632;2024-01-06T12:33:11;100464.56;;;-1.81;100.00